LIMP/PMF METAR and TAF weather

Enter ICAO airport designator
Station Type Date Time Source
LIMP METAR 2019/05/26 22:50 UTC NOAA

LIMP 262250Z VRB01KT 6000 SCT050 16/15 Q1013


Station Type Date Time Source
LIMP Decoded METAR 2019/05/26 22:50 UTC NOAA

Parma, Italy (LIMP) 44-49-17N 010-17-41E
May 26, 2019 - 06:50 PM EDT / 2019.05.26 2250 UTC
Wind: Variable at 1 MPH (1 KT):0
Visibility: 3 mile(s):0
Sky conditions: partly cloudy
Temperature: 60 F (16 C)
Dew Point: 59 F (15 C)
Relative Humidity: 93%
Pressure (altimeter): 29.91 in. Hg (1013 hPa)
ob: LIMP 262250Z VRB01KT 6000 SCT050 16/15 Q1013
cycle: 23

Station Type Date Time Source
LIMP TAF 2019/05/26 18:21 UTC NOAA

TAF LIMP 261700Z 2618/2718 VRB05KT 6000 SCT025 BKN060
BECMG 2700/2703 RA

Example: see airport list